Terminal Aerodrome Forecast
Issued by NWS Cleveland, OH

Home | Current Version | Previous Version | Text Only | Print | Product List | Glossary Off
Versions: 1 2 3 4 5 6 7 8 9 10 11 12 13 14

347
FTUS41 KCLE 190545
TAFMFD
TAF
KMFD 190545Z 1906/2006 01008KT P6SM OVC040
     FM190800 35010KT 5SM -RASN OVC006
     FM190900 33012KT 4SM -SHSN OVC005
      TEMPO 1909/1911 1 1/2SM -SN OVC006
     FM191300 34011KT P6SM VCSH OVC006
     FM191700 33015G25KT P6SM BKN020
     FM192300 33005KT P6SM SCT024=

USA.gov is the U.S. government's official web portal to all federal, state and local government web resources and services.